sensor_id;sensor_type;location;lat;lon;timestamp;temperature;humidity
11093;DHT22;5600;50.864;6.102;2023-12-28T00:01:33;9.30;99.90
11093;DHT22;5600;50.864;6.102;2023-12-28T00:04:34;9.20;99.90
11093;DHT22;5600;50.864;6.102;2023-12-28T00:07:35;9.20;99.90
11093;DHT22;5600;50.864;6.102;2023-12-28T00:10:36;9.10;99.90
11093;DHT22;5600;50.864;6.102;2023-12-28T00:13:38;9.00;99.90
11093;DHT22;5600;50.864;6.102;2023-12-28T00:16:38;9.00;99.90
11093;DHT22;5600;50.864;6.102;2023-12-28T00:19:39;9.00;99.90
11093;DHT22;5600;50.864;6.102;2023-12-28T00:22:41;9.10;99.90
11093;DHT22;5600;50.864;6.102;2023-12-28T00:25:41;9.20;99.90
11093;DHT22;5600;50.864;6.102;2023-12-28T00:28:42;9.30;99.90
11093;DHT22;5600;50.864;6.102;2023-12-28T00:31:43;9.40;99.90
11093;DHT22;5600;50.864;6.102;2023-12-28T00:34:44;9.40;99.90
11093;DHT22;5600;50.864;6.102;2023-12-28T00:37:44;9.50;99.90
11093;DHT22;5600;50.864;6.102;2023-12-28T00:40:45;9.60;99.90
11093;DHT22;5600;50.864;6.102;2023-12-28T00:43:46;9.70;99.90
11093;DHT22;5600;50.864;6.102;2023-12-28T00:46:47;9.70;99.90
11093;DHT22;5600;50.864;6.102;2023-12-28T00:49:47;9.70;99.90
11093;DHT22;5600;50.864;6.102;2023-12-28T00:52:48;9.80;99.90
11093;DHT22;5600;50.864;6.102;2023-12-28T00:55:49;9.90;99.90
11093;DHT22;5600;50.864;6.102;2023-12-28T00:58:50;9.90;99.90
11093;DHT22;5600;50.864;6.102;2023-12-28T01:01:51;9.90;99.90
11093;DHT22;5600;50.864;6.102;2023-12-28T01:04:51;9.90;99.90
11093;DHT22;5600;50.864;6.102;2023-12-28T01:07:53;9.90;99.90
11093;DHT22;5600;50.864;6.102;2023-12-28T01:10:54;10.00;99.90
11093;DHT22;5600;50.864;6.102;2023-12-28T01:13:54;10.00;99.90
11093;DHT22;5600;50.864;6.102;2023-12-28T01:16:55;10.00;99.90
11093;DHT22;5600;50.864;6.102;2023-12-28T01:19:56;10.00;99.90
11093;DHT22;5600;50.864;6.102;2023-12-28T01:22:57;10.00;99.90
11093;DHT22;5600;50.864;6.102;2023-12-28T01:25:58;10.00;99.90
11093;DHT22;5600;50.864;6.102;2023-12-28T01:28:59;10.00;99.90
11093;DHT22;5600;50.864;6.102;2023-12-28T01:32:03;10.00;99.90
11093;DHT22;5600;50.864;6.102;2023-12-28T01:35:05;10.10;99.90
11093;DHT22;5600;50.864;6.102;2023-12-28T01:38:06;10.00;99.90
11093;DHT22;5600;50.864;6.102;2023-12-28T01:41:06;10.00;99.90
11093;DHT22;5600;50.864;6.102;2023-12-28T01:44:07;10.00;99.90
11093;DHT22;5600;50.864;6.102;2023-12-28T01:47:08;10.00;99.90
11093;DHT22;5600;50.864;6.102;2023-12-28T01:50:09;9.90;99.90
11093;DHT22;5600;50.864;6.102;2023-12-28T01:53:10;9.90;99.90
11093;DHT22;5600;50.864;6.102;2023-12-28T01:56:11;9.90;99.90
11093;DHT22;5600;50.864;6.102;2023-12-28T01:59:12;10.00;99.90
11093;DHT22;5600;50.864;6.102;2023-12-28T02:02:15;9.90;99.90
11093;DHT22;5600;50.864;6.102;2023-12-28T02:05:17;9.90;99.90
11093;DHT22;5600;50.864;6.102;2023-12-28T02:08:18;9.80;99.90
11093;DHT22;5600;50.864;6.102;2023-12-28T02:11:19;9.90;99.90
11093;DHT22;5600;50.864;6.102;2023-12-28T02:14:21;9.90;99.90
11093;DHT22;5600;50.864;6.102;2023-12-28T02:17:26;9.90;99.90
11093;DHT22;5600;50.864;6.102;2023-12-28T02:20:31;9.90;99.90
11093;DHT22;5600;50.864;6.102;2023-12-28T02:23:32;10.00;99.90
11093;DHT22;5600;50.864;6.102;2023-12-28T02:26:33;10.00;99.90
11093;DHT22;5600;50.864;6.102;2023-12-28T02:29:34;10.00;99.90
11093;DHT22;5600;50.864;6.102;2023-12-28T02:32:51;10.00;99.90
11093;DHT22;5600;50.864;6.102;2023-12-28T02:35:57;10.00;99.90
11093;DHT22;5600;50.864;6.102;2023-12-28T02:38:59;10.00;99.90
11093;DHT22;5600;50.864;6.102;2023-12-28T02:42:03;10.00;99.90
11093;DHT22;5600;50.864;6.102;2023-12-28T02:45:06;10.00;99.90
11093;DHT22;5600;50.864;6.102;2023-12-28T02:48:07;10.00;99.90
11093;DHT22;5600;50.864;6.102;2023-12-28T02:51:08;10.00;99.90
11093;DHT22;5600;50.864;6.102;2023-12-28T02:54:08;10.00;99.90
11093;DHT22;5600;50.864;6.102;2023-12-28T02:57:09;10.00;99.90
11093;DHT22;5600;50.864;6.102;2023-12-28T03:00:10;10.10;99.90
11093;DHT22;5600;50.864;6.102;2023-12-28T03:03:11;10.10;99.90
11093;DHT22;5600;50.864;6.102;2023-12-28T03:06:12;10.20;99.90
11093;DHT22;5600;50.864;6.102;2023-12-28T03:09:12;10.10;99.90
11093;DHT22;5600;50.864;6.102;2023-12-28T03:12:13;10.10;99.90
11093;DHT22;5600;50.864;6.102;2023-12-28T03:15:14;10.10;99.90
11093;DHT22;5600;50.864;6.102;2023-12-28T03:18:14;10.10;99.90
11093;DHT22;5600;50.864;6.102;2023-12-28T03:21:15;10.10;99.90
11093;DHT22;5600;50.864;6.102;2023-12-28T03:24:16;10.10;99.90
11093;DHT22;5600;50.864;6.102;2023-12-28T03:27:17;10.20;99.90
11093;DHT22;5600;50.864;6.102;2023-12-28T03:30:18;10.20;99.90
11093;DHT22;5600;50.864;6.102;2023-12-28T03:33:18;10.20;99.90
11093;DHT22;5600;50.864;6.102;2023-12-28T03:36:19;10.20;99.90
11093;DHT22;5600;50.864;6.102;2023-12-28T03:39:20;10.20;99.90
11093;DHT22;5600;50.864;6.102;2023-12-28T03:42:21;10.20;99.90
11093;DHT22;5600;50.864;6.102;2023-12-28T03:45:23;10.10;99.90
11093;DHT22;5600;50.864;6.102;2023-12-28T03:48:23;10.20;99.90
11093;DHT22;5600;50.864;6.102;2023-12-28T03:51:24;10.20;99.90
11093;DHT22;5600;50.864;6.102;2023-12-28T03:54:25;10.20;99.90
11093;DHT22;5600;50.864;6.102;2023-12-28T03:57:26;10.20;99.90
11093;DHT22;5600;50.864;6.102;2023-12-28T04:00:27;10.10;99.90
11093;DHT22;5600;50.864;6.102;2023-12-28T04:03:27;10.20;99.90
11093;DHT22;5600;50.864;6.102;2023-12-28T04:06:28;10.20;99.90
11093;DHT22;5600;50.864;6.102;2023-12-28T04:09:29;10.20;99.90
11093;DHT22;5600;50.864;6.102;2023-12-28T04:12:30;10.20;99.90
11093;DHT22;5600;50.864;6.102;2023-12-28T04:15:31;10.20;99.90
11093;DHT22;5600;50.864;6.102;2023-12-28T04:18:32;10.20;99.90
11093;DHT22;5600;50.864;6.102;2023-12-28T04:21:33;10.10;99.90
11093;DHT22;5600;50.864;6.102;2023-12-28T04:24:34;10.10;99.90
11093;DHT22;5600;50.864;6.102;2023-12-28T04:27:35;10.10;99.90
11093;DHT22;5600;50.864;6.102;2023-12-28T04:30:35;10.10;99.90
11093;DHT22;5600;50.864;6.102;2023-12-28T04:33:37;10.10;99.90
11093;DHT22;5600;50.864;6.102;2023-12-28T04:36:41;10.10;99.90
11093;DHT22;5600;50.864;6.102;2023-12-28T04:39:43;10.10;99.90
11093;DHT22;5600;50.864;6.102;2023-12-28T04:42:44;10.10;99.90
11093;DHT22;5600;50.864;6.102;2023-12-28T04:45:45;10.10;99.90
11093;DHT22;5600;50.864;6.102;2023-12-28T04:48:45;10.10;99.90
11093;DHT22;5600;50.864;6.102;2023-12-28T04:51:46;10.00;99.90
11093;DHT22;5600;50.864;6.102;2023-12-28T04:54:47;10.00;99.90
11093;DHT22;5600;50.864;6.102;2023-12-28T04:57:47;10.00;99.90
11093;DHT22;5600;50.864;6.102;2023-12-28T05:00:48;10.00;99.90
11093;DHT22;5600;50.864;6.102;2023-12-28T05:03:51;10.10;99.90
11093;DHT22;5600;50.864;6.102;2023-12-28T05:06:55;10.10;99.90
11093;DHT22;5600;50.864;6.102;2023-12-28T05:09:56;10.10;99.90
11093;DHT22;5600;50.864;6.102;2023-12-28T05:12:56;10.10;99.90
11093;DHT22;5600;50.864;6.102;2023-12-28T05:15:57;10.00;99.90
11093;DHT22;5600;50.864;6.102;2023-12-28T05:18:58;10.10;99.90
11093;DHT22;5600;50.864;6.102;2023-12-28T05:21:58;10.10;99.90
11093;DHT22;5600;50.864;6.102;2023-12-28T05:25:03;10.10;99.90
11093;DHT22;5600;50.864;6.102;2023-12-28T05:28:04;10.10;99.90
11093;DHT22;5600;50.864;6.102;2023-12-28T05:31:05;10.20;99.90
11093;DHT22;5600;50.864;6.102;2023-12-28T05:34:06;10.10;99.90
11093;DHT22;5600;50.864;6.102;2023-12-28T05:37:06;10.20;99.90
11093;DHT22;5600;50.864;6.102;2023-12-28T05:40:07;10.20;99.90
11093;DHT22;5600;50.864;6.102;2023-12-28T05:43:10;10.30;99.90
11093;DHT22;5600;50.864;6.102;2023-12-28T05:46:11;10.30;99.90
11093;DHT22;5600;50.864;6.102;2023-12-28T05:49:12;10.30;99.90
11093;DHT22;5600;50.864;6.102;2023-12-28T05:52:13;10.30;99.90
11093;DHT22;5600;50.864;6.102;2023-12-28T05:55:15;10.30;99.90
11093;DHT22;5600;50.864;6.102;2023-12-28T05:58:16;10.30;99.90
11093;DHT22;5600;50.864;6.102;2023-12-28T06:01:17;10.30;99.90
11093;DHT22;5600;50.864;6.102;2023-12-28T06:04:17;10.20;99.90
11093;DHT22;5600;50.864;6.102;2023-12-28T06:07:18;10.20;99.90
11093;DHT22;5600;50.864;6.102;2023-12-28T06:10:19;10.20;99.90
11093;DHT22;5600;50.864;6.102;2023-12-28T06:13:20;10.10;99.90
11093;DHT22;5600;50.864;6.102;2023-12-28T06:16:21;10.10;99.90
11093;DHT22;5600;50.864;6.102;2023-12-28T06:19:22;10.10;99.90
11093;DHT22;5600;50.864;6.102;2023-12-28T06:22:22;10.10;99.90
11093;DHT22;5600;50.864;6.102;2023-12-28T06:25:27;10.10;99.90
11093;DHT22;5600;50.864;6.102;2023-12-28T06:28:28;10.00;99.90
11093;DHT22;5600;50.864;6.102;2023-12-28T06:31:29;9.90;99.90
11093;DHT22;5600;50.864;6.102;2023-12-28T06:34:29;9.90;99.90
11093;DHT22;5600;50.864;6.102;2023-12-28T06:37:30;9.90;99.90
11093;DHT22;5600;50.864;6.102;2023-12-28T06:40:31;9.90;99.90
11093;DHT22;5600;50.864;6.102;2023-12-28T06:43:31;9.90;99.90
11093;DHT22;5600;50.864;6.102;2023-12-28T06:46:32;10.00;99.90
11093;DHT22;5600;50.864;6.102;2023-12-28T06:49:33;10.00;99.90
11093;DHT22;5600;50.864;6.102;2023-12-28T06:52:33;10.00;99.90
11093;DHT22;5600;50.864;6.102;2023-12-28T06:55:34;10.00;99.90
11093;DHT22;5600;50.864;6.102;2023-12-28T06:58:35;10.00;99.90
11093;DHT22;5600;50.864;6.102;2023-12-28T07:01:35;9.90;99.90
11093;DHT22;5600;50.864;6.102;2023-12-28T07:04:36;10.00;99.90
11093;DHT22;5600;50.864;6.102;2023-12-28T07:07:37;10.00;99.90
11093;DHT22;5600;50.864;6.102;2023-12-28T07:10:37;10.00;99.90
11093;DHT22;5600;50.864;6.102;2023-12-28T07:13:38;10.00;99.90
11093;DHT22;5600;50.864;6.102;2023-12-28T07:16:39;9.90;99.90
11093;DHT22;5600;50.864;6.102;2023-12-28T07:19:40;9.90;99.90
11093;DHT22;5600;50.864;6.102;2023-12-28T07:22:41;9.90;99.90
11093;DHT22;5600;50.864;6.102;2023-12-28T07:25:41;9.90;99.90
11093;DHT22;5600;50.864;6.102;2023-12-28T07:28:42;10.00;99.90
11093;DHT22;5600;50.864;6.102;2023-12-28T07:31:45;10.00;99.90
11093;DHT22;5600;50.864;6.102;2023-12-28T07:34:45;10.10;99.90
11093;DHT22;5600;50.864;6.102;2023-12-28T07:37:46;10.10;99.90
11093;DHT22;5600;50.864;6.102;2023-12-28T07:40:47;10.10;99.90
11093;DHT22;5600;50.864;6.102;2023-12-28T07:43:48;10.10;99.90
11093;DHT22;5600;50.864;6.102;2023-12-28T07:46:49;10.00;99.90
11093;DHT22;5600;50.864;6.102;2023-12-28T07:49:50;10.10;99.90
11093;DHT22;5600;50.864;6.102;2023-12-28T07:52:51;10.10;99.90
11093;DHT22;5600;50.864;6.102;2023-12-28T07:55:52;10.10;99.90
11093;DHT22;5600;50.864;6.102;2023-12-28T07:58:52;10.10;99.90
11093;DHT22;5600;50.864;6.102;2023-12-28T08:01:53;10.10;99.90
11093;DHT22;5600;50.864;6.102;2023-12-28T08:04:54;10.10;99.90
11093;DHT22;5600;50.864;6.102;2023-12-28T08:07:55;10.10;99.90
11093;DHT22;5600;50.864;6.102;2023-12-28T08:10:55;10.00;99.90
11093;DHT22;5600;50.864;6.102;2023-12-28T08:13:56;10.10;99.90
11093;DHT22;5600;50.864;6.102;2023-12-28T08:16:57;10.10;99.90
11093;DHT22;5600;50.864;6.102;2023-12-28T08:19:57;10.20;99.90
11093;DHT22;5600;50.864;6.102;2023-12-28T08:22:58;10.10;99.90
11093;DHT22;5600;50.864;6.102;2023-12-28T08:25:59;10.20;99.90
11093;DHT22;5600;50.864;6.102;2023-12-28T08:29:00;10.20;99.90
11093;DHT22;5600;50.864;6.102;2023-12-28T08:32:00;10.30;99.90
11093;DHT22;5600;50.864;6.102;2023-12-28T08:35:01;10.30;99.90
11093;DHT22;5600;50.864;6.102;2023-12-28T08:38:03;10.20;99.90
11093;DHT22;5600;50.864;6.102;2023-12-28T08:41:04;10.30;99.90
11093;DHT22;5600;50.864;6.102;2023-12-28T08:44:09;10.40;99.90
11093;DHT22;5600;50.864;6.102;2023-12-28T08:47:10;10.50;99.90
11093;DHT22;5600;50.864;6.102;2023-12-28T08:50:10;10.50;99.90
11093;DHT22;5600;50.864;6.102;2023-12-28T08:53:11;10.60;99.90
11093;DHT22;5600;50.864;6.102;2023-12-28T08:56:22;10.70;99.90
11093;DHT22;5600;50.864;6.102;2023-12-28T08:59:23;10.70;99.90
11093;DHT22;5600;50.864;6.102;2023-12-28T09:02:23;10.60;99.90
11093;DHT22;5600;50.864;6.102;2023-12-28T09:05:24;10.70;99.90
11093;DHT22;5600;50.864;6.102;2023-12-28T09:08:25;10.70;99.90
11093;DHT22;5600;50.864;6.102;2023-12-28T09:11:25;10.70;99.90
11093;DHT22;5600;50.864;6.102;2023-12-28T09:14:27;10.80;99.90
11093;DHT22;5600;50.864;6.102;2023-12-28T09:17:28;10.80;99.90
11093;DHT22;5600;50.864;6.102;2023-12-28T09:20:29;10.90;99.90
11093;DHT22;5600;50.864;6.102;2023-12-28T09:23:30;10.90;99.90
11093;DHT22;5600;50.864;6.102;2023-12-28T09:26:32;11.00;99.90
11093;DHT22;5600;50.864;6.102;2023-12-28T09:29:33;11.00;99.90
11093;DHT22;5600;50.864;6.102;2023-12-28T09:32:35;11.00;99.90
11093;DHT22;5600;50.864;6.102;2023-12-28T09:35:36;11.10;99.90
11093;DHT22;5600;50.864;6.102;2023-12-28T09:38:37;11.10;99.90
11093;DHT22;5600;50.864;6.102;2023-12-28T09:41:43;11.10;99.90
11093;DHT22;5600;50.864;6.102;2023-12-28T09:44:48;11.20;99.90
11093;DHT22;5600;50.864;6.102;2023-12-28T09:47:49;11.20;99.90
11093;DHT22;5600;50.864;6.102;2023-12-28T09:50:52;11.20;99.90
11093;DHT22;5600;50.864;6.102;2023-12-28T09:53:58;11.20;99.90
11093;DHT22;5600;50.864;6.102;2023-12-28T09:56:58;11.20;99.90
11093;DHT22;5600;50.864;6.102;2023-12-28T09:59:59;11.30;99.90
11093;DHT22;5600;50.864;6.102;2023-12-28T10:03:00;11.30;99.90
11093;DHT22;5600;50.864;6.102;2023-12-28T10:06:01;11.30;99.90
11093;DHT22;5600;50.864;6.102;2023-12-28T10:09:02;11.20;99.90
11093;DHT22;5600;50.864;6.102;2023-12-28T10:12:03;11.30;99.90
11093;DHT22;5600;50.864;6.102;2023-12-28T10:15:05;11.30;99.90
11093;DHT22;5600;50.864;6.102;2023-12-28T10:18:06;11.40;99.90
11093;DHT22;5600;50.864;6.102;2023-12-28T10:21:07;11.40;99.90
11093;DHT22;5600;50.864;6.102;2023-12-28T10:24:10;11.40;99.90
11093;DHT22;5600;50.864;6.102;2023-12-28T10:27:11;11.50;99.90
11093;DHT22;5600;50.864;6.102;2023-12-28T10:30:13;11.50;99.90
11093;DHT22;5600;50.864;6.102;2023-12-28T10:33:14;10.90;99.90
11093;DHT22;5600;50.864;6.102;2023-12-28T10:36:16;11.70;99.90
11093;DHT22;5600;50.864;6.102;2023-12-28T10:39:20;11.80;99.90
11093;DHT22;5600;50.864;6.102;2023-12-28T10:42:29;11.90;99.90
11093;DHT22;5600;50.864;6.102;2023-12-28T10:45:35;12.00;99.90
11093;DHT22;5600;50.864;6.102;2023-12-28T10:48:41;12.10;99.90
11093;DHT22;5600;50.864;6.102;2023-12-28T10:51:43;12.10;99.90
11093;DHT22;5600;50.864;6.102;2023-12-28T10:55:27;10.50;99.90
11093;DHT22;5600;50.864;6.102;2023-12-28T11:02:11;12.40;99.90
11093;DHT22;5600;50.864;6.102;2023-12-28T11:05:15;12.50;99.90
11093;DHT22;5600;50.864;6.102;2023-12-28T11:08:17;12.50;99.90
11093;DHT22;5600;50.864;6.102;2023-12-28T11:11:21;12.60;99.90
11093;DHT22;5600;50.864;6.102;2023-12-28T11:14:23;12.50;99.90
11093;DHT22;5600;50.864;6.102;2023-12-28T11:17:23;12.40;99.90
11093;DHT22;5600;50.864;6.102;2023-12-28T11:20:29;12.40;99.90
11093;DHT22;5600;50.864;6.102;2023-12-28T11:23:30;12.40;99.90
11093;DHT22;5600;50.864;6.102;2023-12-28T11:26:31;12.50;99.90
11093;DHT22;5600;50.864;6.102;2023-12-28T11:29:32;12.50;99.90
11093;DHT22;5600;50.864;6.102;2023-12-28T11:32:33;12.50;99.90
11093;DHT22;5600;50.864;6.102;2023-12-28T11:35:38;12.50;99.90
11093;DHT22;5600;50.864;6.102;2023-12-28T11:38:40;12.50;99.90
11093;DHT22;5600;50.864;6.102;2023-12-28T11:41:42;12.50;99.90
11093;DHT22;5600;50.864;6.102;2023-12-28T11:44:43;12.40;99.90
11093;DHT22;5600;50.864;6.102;2023-12-28T11:47:45;12.50;99.90
11093;DHT22;5600;50.864;6.102;2023-12-28T11:50:45;12.40;99.90
11093;DHT22;5600;50.864;6.102;2023-12-28T11:53:46;12.40;99.90
11093;DHT22;5600;50.864;6.102;2023-12-28T11:56:48;12.40;99.90
11093;DHT22;5600;50.864;6.102;2023-12-28T11:59:53;11.20;99.90
11093;DHT22;5600;50.864;6.102;2023-12-28T12:02:54;12.40;99.90
11093;DHT22;5600;50.864;6.102;2023-12-28T12:05:56;12.40;99.90
11093;DHT22;5600;50.864;6.102;2023-12-28T12:08:59;12.50;99.90
11093;DHT22;5600;50.864;6.102;2023-12-28T12:12:01;12.40;99.90
11093;DHT22;5600;50.864;6.102;2023-12-28T12:15:02;12.50;99.90
11093;DHT22;5600;50.864;6.102;2023-12-28T12:18:03;12.50;99.90
11093;DHT22;5600;50.864;6.102;2023-12-28T12:21:05;12.40;99.90
11093;DHT22;5600;50.864;6.102;2023-12-28T12:24:07;12.40;99.90
11093;DHT22;5600;50.864;6.102;2023-12-28T12:27:07;12.40;99.90
11093;DHT22;5600;50.864;6.102;2023-12-28T12:30:08;12.50;99.90
11093;DHT22;5600;50.864;6.102;2023-12-28T12:33:10;12.50;99.90
11093;DHT22;5600;50.864;6.102;2023-12-28T12:36:11;12.40;99.90
11093;DHT22;5600;50.864;6.102;2023-12-28T12:39:12;12.40;99.90
11093;DHT22;5600;50.864;6.102;2023-12-28T12:42:14;12.30;99.90
11093;DHT22;5600;50.864;6.102;2023-12-28T12:45:14;12.30;99.90
11093;DHT22;5600;50.864;6.102;2023-12-28T12:48:15;12.30;99.90
11093;DHT22;5600;50.864;6.102;2023-12-28T12:51:18;12.30;99.90
11093;DHT22;5600;50.864;6.102;2023-12-28T12:54:18;12.20;99.90
11093;DHT22;5600;50.864;6.102;2023-12-28T12:57:19;12.20;99.90
11093;DHT22;5600;50.864;6.102;2023-12-28T13:00:20;12.20;99.90
11093;DHT22;5600;50.864;6.102;2023-12-28T13:03:21;12.10;99.90
11093;DHT22;5600;50.864;6.102;2023-12-28T13:06:22;12.10;99.90
11093;DHT22;5600;50.864;6.102;2023-12-28T13:09:23;12.10;99.90
11093;DHT22;5600;50.864;6.102;2023-12-28T13:12:24;12.10;99.90
11093;DHT22;5600;50.864;6.102;2023-12-28T13:15:25;12.10;99.90
11093;DHT22;5600;50.864;6.102;2023-12-28T13:18:26;12.10;99.90
11093;DHT22;5600;50.864;6.102;2023-12-28T13:21:26;12.10;99.90
11093;DHT22;5600;50.864;6.102;2023-12-28T13:24:27;12.10;99.90
11093;DHT22;5600;50.864;6.102;2023-12-28T13:27:28;12.10;99.90
11093;DHT22;5600;50.864;6.102;2023-12-28T13:30:29;12.00;99.90
11093;DHT22;5600;50.864;6.102;2023-12-28T13:33:30;12.00;99.90
11093;DHT22;5600;50.864;6.102;2023-12-28T13:36:30;12.00;99.90
11093;DHT22;5600;50.864;6.102;2023-12-28T13:39:31;12.00;99.90
11093;DHT22;5600;50.864;6.102;2023-12-28T13:42:32;12.00;99.90
11093;DHT22;5600;50.864;6.102;2023-12-28T13:45:33;12.00;99.90
11093;DHT22;5600;50.864;6.102;2023-12-28T13:48:34;12.00;99.90
11093;DHT22;5600;50.864;6.102;2023-12-28T13:51:36;12.00;99.90
11093;DHT22;5600;50.864;6.102;2023-12-28T13:54:36;12.00;99.90
11093;DHT22;5600;50.864;6.102;2023-12-28T13:57:37;12.00;99.90
11093;DHT22;5600;50.864;6.102;2023-12-28T14:00:39;11.90;99.90
11093;DHT22;5600;50.864;6.102;2023-12-28T14:03:40;11.90;99.90
11093;DHT22;5600;50.864;6.102;2023-12-28T14:06:41;11.90;99.90
11093;DHT22;5600;50.864;6.102;2023-12-28T14:09:41;11.90;99.90
11093;DHT22;5600;50.864;6.102;2023-12-28T14:12:42;11.90;99.90
11093;DHT22;5600;50.864;6.102;2023-12-28T14:15:43;11.80;99.90
11093;DHT22;5600;50.864;6.102;2023-12-28T14:18:43;11.80;99.90
11093;DHT22;5600;50.864;6.102;2023-12-28T14:21:44;11.30;99.90
11093;DHT22;5600;50.864;6.102;2023-12-28T14:24:45;11.70;99.90
11093;DHT22;5600;50.864;6.102;2023-12-28T14:27:46;11.60;99.90
11093;DHT22;5600;50.864;6.102;2023-12-28T14:30:47;11.60;99.90
11093;DHT22;5600;50.864;6.102;2023-12-28T14:33:48;11.60;99.90
11093;DHT22;5600;50.864;6.102;2023-12-28T14:36:50;11.50;99.90
11093;DHT22;5600;50.864;6.102;2023-12-28T14:39:52;11.50;99.90
11093;DHT22;5600;50.864;6.102;2023-12-28T14:42:53;11.50;99.90
11093;DHT22;5600;50.864;6.102;2023-12-28T14:45:54;11.50;99.90
11093;DHT22;5600;50.864;6.102;2023-12-28T14:48:55;11.50;99.90
11093;DHT22;5600;50.864;6.102;2023-12-28T14:51:56;11.50;99.90
11093;DHT22;5600;50.864;6.102;2023-12-28T14:54:57;11.40;99.90
11093;DHT22;5600;50.864;6.102;2023-12-28T14:57:58;11.40;99.90
11093;DHT22;5600;50.864;6.102;2023-12-28T15:00:59;11.40;99.90
11093;DHT22;5600;50.864;6.102;2023-12-28T15:04:00;11.30;99.90
11093;DHT22;5600;50.864;6.102;2023-12-28T15:07:01;11.20;99.90
11093;DHT22;5600;50.864;6.102;2023-12-28T15:10:02;12.60;99.90
11093;DHT22;5600;50.864;6.102;2023-12-28T15:13:03;11.20;99.90
11093;DHT22;5600;50.864;6.102;2023-12-28T15:16:04;11.20;99.90
11093;DHT22;5600;50.864;6.102;2023-12-28T15:19:05;11.20;99.90
11093;DHT22;5600;50.864;6.102;2023-12-28T15:22:07;11.10;99.90
11093;DHT22;5600;50.864;6.102;2023-12-28T15:25:08;11.10;99.90
11093;DHT22;5600;50.864;6.102;2023-12-28T15:28:09;11.10;99.90
11093;DHT22;5600;50.864;6.102;2023-12-28T15:31:10;11.10;99.90
11093;DHT22;5600;50.864;6.102;2023-12-28T15:34:10;11.20;99.90
11093;DHT22;5600;50.864;6.102;2023-12-28T15:37:11;11.20;99.90
11093;DHT22;5600;50.864;6.102;2023-12-28T15:40:12;11.20;99.90
11093;DHT22;5600;50.864;6.102;2023-12-28T15:43:12;11.20;99.90
11093;DHT22;5600;50.864;6.102;2023-12-28T15:46:13;11.10;99.90
11093;DHT22;5600;50.864;6.102;2023-12-28T15:49:14;11.10;99.90
11093;DHT22;5600;50.864;6.102;2023-12-28T15:52:15;11.10;99.90
11093;DHT22;5600;50.864;6.102;2023-12-28T15:55:15;11.10;99.90
11093;DHT22;5600;50.864;6.102;2023-12-28T15:58:16;11.10;99.90
11093;DHT22;5600;50.864;6.102;2023-12-28T16:01:17;11.00;99.90
11093;DHT22;5600;50.864;6.102;2023-12-28T16:04:19;11.00;99.90
11093;DHT22;5600;50.864;6.102;2023-12-28T16:07:19;11.00;99.90
11093;DHT22;5600;50.864;6.102;2023-12-28T16:10:20;11.00;99.90
11093;DHT22;5600;50.864;6.102;2023-12-28T16:13:22;11.00;99.90
11093;DHT22;5600;50.864;6.102;2023-12-28T16:16:23;11.00;99.90
11093;DHT22;5600;50.864;6.102;2023-12-28T16:19:24;10.90;99.90
11093;DHT22;5600;50.864;6.102;2023-12-28T16:22:25;10.90;99.90
11093;DHT22;5600;50.864;6.102;2023-12-28T16:25:26;10.90;99.90
11093;DHT22;5600;50.864;6.102;2023-12-28T16:28:27;10.90;99.90
11093;DHT22;5600;50.864;6.102;2023-12-28T16:31:28;10.80;99.90
11093;DHT22;5600;50.864;6.102;2023-12-28T16:34:29;10.70;99.90
11093;DHT22;5600;50.864;6.102;2023-12-28T16:37:29;10.70;99.90
11093;DHT22;5600;50.864;6.102;2023-12-28T16:40:30;10.80;99.90
11093;DHT22;5600;50.864;6.102;2023-12-28T16:43:32;10.70;99.90
11093;DHT22;5600;50.864;6.102;2023-12-28T16:46:32;10.60;99.90
11093;DHT22;5600;50.864;6.102;2023-12-28T16:49:33;10.60;99.90
11093;DHT22;5600;50.864;6.102;2023-12-28T16:52:34;10.60;99.90
11093;DHT22;5600;50.864;6.102;2023-12-28T16:55:34;10.60;99.90
11093;DHT22;5600;50.864;6.102;2023-12-28T16:58:35;10.50;99.90
11093;DHT22;5600;50.864;6.102;2023-12-28T17:01:36;10.50;99.90
11093;DHT22;5600;50.864;6.102;2023-12-28T17:04:37;10.50;99.90
11093;DHT22;5600;50.864;6.102;2023-12-28T17:07:38;10.50;99.90
11093;DHT22;5600;50.864;6.102;2023-12-28T17:10:39;10.50;99.90
11093;DHT22;5600;50.864;6.102;2023-12-28T17:13:43;10.50;99.90
11093;DHT22;5600;50.864;6.102;2023-12-28T17:16:44;10.40;99.90
11093;DHT22;5600;50.864;6.102;2023-12-28T17:19:45;10.40;99.90
11093;DHT22;5600;50.864;6.102;2023-12-28T17:22:51;10.40;99.90
11093;DHT22;5600;50.864;6.102;2023-12-28T17:26:02;10.40;99.90
11093;DHT22;5600;50.864;6.102;2023-12-28T17:29:07;10.40;99.90
11093;DHT22;5600;50.864;6.102;2023-12-28T17:32:09;10.40;99.90
11093;DHT22;5600;50.864;6.102;2023-12-28T17:35:12;10.40;99.90
11093;DHT22;5600;50.864;6.102;2023-12-28T17:38:13;10.30;99.90
11093;DHT22;5600;50.864;6.102;2023-12-28T17:41:15;10.30;99.90
11093;DHT22;5600;50.864;6.102;2023-12-28T17:44:24;10.30;99.90
11093;DHT22;5600;50.864;6.102;2023-12-28T17:47:39;10.20;99.90
11093;DHT22;5600;50.864;6.102;2023-12-28T17:50:43;10.20;99.90
11093;DHT22;5600;50.864;6.102;2023-12-28T17:53:44;10.30;99.90
11093;DHT22;5600;50.864;6.102;2023-12-28T17:56:45;10.20;99.90
11093;DHT22;5600;50.864;6.102;2023-12-28T17:59:46;10.20;99.90
11093;DHT22;5600;50.864;6.102;2023-12-28T18:02:46;10.20;99.90
11093;DHT22;5600;50.864;6.102;2023-12-28T18:05:47;10.30;99.90
11093;DHT22;5600;50.864;6.102;2023-12-28T18:08:48;10.20;99.90
11093;DHT22;5600;50.864;6.102;2023-12-28T18:11:49;10.30;99.90
11093;DHT22;5600;50.864;6.102;2023-12-28T18:14:50;10.30;99.90
11093;DHT22;5600;50.864;6.102;2023-12-28T18:17:51;10.20;99.90
11093;DHT22;5600;50.864;6.102;2023-12-28T18:20:52;10.20;99.90
11093;DHT22;5600;50.864;6.102;2023-12-28T18:23:52;10.20;99.90
11093;DHT22;5600;50.864;6.102;2023-12-28T18:26:53;10.20;99.90
11093;DHT22;5600;50.864;6.102;2023-12-28T18:29:54;10.10;99.90
11093;DHT22;5600;50.864;6.102;2023-12-28T18:32:55;10.20;99.90
11093;DHT22;5600;50.864;6.102;2023-12-28T18:35:56;10.20;99.90
11093;DHT22;5600;50.864;6.102;2023-12-28T18:38:59;10.20;99.90
11093;DHT22;5600;50.864;6.102;2023-12-28T18:41:59;10.20;99.90
11093;DHT22;5600;50.864;6.102;2023-12-28T18:45:00;10.10;99.90
11093;DHT22;5600;50.864;6.102;2023-12-28T18:48:01;10.20;99.90
11093;DHT22;5600;50.864;6.102;2023-12-28T18:51:02;10.30;99.90
11093;DHT22;5600;50.864;6.102;2023-12-28T18:54:03;10.30;99.90
11093;DHT22;5600;50.864;6.102;2023-12-28T18:57:03;10.20;99.90
11093;DHT22;5600;50.864;6.102;2023-12-28T19:00:05;10.20;99.90
11093;DHT22;5600;50.864;6.102;2023-12-28T19:03:06;10.20;99.90
11093;DHT22;5600;50.864;6.102;2023-12-28T19:06:07;10.20;99.90
11093;DHT22;5600;50.864;6.102;2023-12-28T19:09:07;10.20;99.90
11093;DHT22;5600;50.864;6.102;2023-12-28T19:12:10;10.20;99.90
11093;DHT22;5600;50.864;6.102;2023-12-28T19:15:11;10.20;99.90
11093;DHT22;5600;50.864;6.102;2023-12-28T19:18:12;10.10;99.90
11093;DHT22;5600;50.864;6.102;2023-12-28T19:24:15;10.10;99.90
11093;DHT22;5600;50.864;6.102;2023-12-28T19:27:16;10.00;99.90
11093;DHT22;5600;50.864;6.102;2023-12-28T19:30:17;10.10;99.90
11093;DHT22;5600;50.864;6.102;2023-12-28T19:33:18;10.00;99.90